Time;durP1;ratioP1;P1;durP2;ratioP2;P2;SDS_P1;SDS_P2;PMS_P1;PMS_P2;Temp;Humidity;BMP_temperature;BMP_pressure;BME280_temperature;BME280_humidity;BME280_pressure;Samples;Min_cycle;Max_cycle;Signal;HPM_P1;HPM_P2
2022/10/08 04:01:02;;;;;;;20.80;18.67;;;;;;;;;;5714778;22;20605;-78
2022/10/08 04:03:28;;;;;;;22.83;20.13;;;;;;;;;;5026680;28;20895;-78
2022/10/08 04:05:54;;;;;;;22.30;20.00;;;;;;;;;;5030314;28;20402;-78
2022/10/08 04:08:21;;;;;;;26.77;21.80;;;;;;;;;;5032189;28;20388;-78
2022/10/08 04:10:47;;;;;;;24.48;19.45;;;;;;;;;;5031913;28;20395;-78
2022/10/08 04:13:14;;;;;;;20.83;18.63;;;;;;;;;;5014748;28;20389;-78
2022/10/08 04:15:40;;;;;;;22.05;19.63;;;;;;;;;;5012312;28;20389;-78
2022/10/08 04:18:06;;;;;;;20.20;18.15;;;;;;;;;;5012171;28;20462;-78
2022/10/08 04:20:32;;;;;;;22.40;19.88;;;;;;;;;;5012172;28;21120;-79
2022/10/08 04:22:58;;;;;;;25.20;21.85;;;;;;;;;;5015954;28;20381;-78
2022/10/08 04:25:24;;;;;;;24.92;22.33;;;;;;;;;;5012226;28;20421;-78
2022/10/08 04:27:50;;;;;;;22.40;18.50;;;;;;;;;;5001836;28;20480;-78
2022/10/08 04:30:16;;;;;;;21.58;19.00;;;;;;;;;;5012190;28;20393;-78
2022/10/08 04:32:43;;;;;;;21.77;19.55;;;;;;;;;;5012004;28;20385;-78
2022/10/08 04:35:09;;;;;;;23.67;21.17;;;;;;;;;;5013802;28;20457;-78
2022/10/08 04:37:35;;;;;;;29.52;23.40;;;;;;;;;;5015696;28;20463;-78
2022/10/08 04:40:01;;;;;;;24.25;21.85;;;;;;;;;;5015942;28;20389;-78
2022/10/08 04:42:27;;;;;;;26.95;23.15;;;;;;;;;;5015735;28;20413;-78
2022/10/08 04:44:53;;;;;;;25.33;22.73;;;;;;;;;;5015655;28;20460;-78
2022/10/08 04:47:19;;;;;;;25.20;22.40;;;;;;;;;;5015770;28;20822;-78
2022/10/08 04:49:45;;;;;;;25.73;23.13;;;;;;;;;;5015698;28;20480;-78
2022/10/08 04:52:12;;;;;;;25.73;23.23;;;;;;;;;;5015711;28;20742;-78
2022/10/08 04:54:38;;;;;;;33.22;28.65;;;;;;;;;;5015872;28;20391;-78
2022/10/08 04:57:04;;;;;;;31.47;27.97;;;;;;;;;;5015101;28;20770;-78
2022/10/08 04:59:30;;;;;;;34.75;29.35;;;;;;;;;;5015153;28;20392;-78
2022/10/08 05:01:56;;;;;;;34.13;29.10;;;;;;;;;;5014808;28;20414;-78
2022/10/08 05:04:22;;;;;;;36.63;29.73;;;;;;;;;;5010602;28;20378;-78
2022/10/08 05:06:48;;;;;;;36.58;30.23;;;;;;;;;;5015062;28;20399;-78
2022/10/08 05:09:14;;;;;;;35.55;30.42;;;;;;;;;;5015154;28;20397;-78
2022/10/08 05:11:41;;;;;;;35.13;29.25;;;;;;;;;;5014889;28;20392;-79
2022/10/08 05:14:08;;;;;;;35.90;30.42;;;;;;;;;;5015140;28;20396;-78
2022/10/08 05:16:35;;;;;;;38.78;32.10;;;;;;;;;;5014826;28;20384;-78
2022/10/08 05:19:01;;;;;;;35.78;30.10;;;;;;;;;;5017274;28;20380;-78
2022/10/08 05:21:27;;;;;;;39.05;30.65;;;;;;;;;;5014818;28;20443;-78
2022/10/08 05:23:58;;;;;;;35.67;29.63;;;;;;;;;;5014640;28;20377;-78
2022/10/08 05:26:25;;;;;;;41.67;31.58;;;;;;;;;;5013235;28;20388;-78
2022/10/08 05:28:53;;;;;;;39.15;29.42;;;;;;;;;;5013265;28;20388;-78
2022/10/08 05:31:19;;;;;;;38.33;28.47;;;;;;;;;;5012484;28;21074;-79
2022/10/08 05:33:45;;;;;;;37.00;28.02;;;;;;;;;;5014601;28;20484;-80
2022/10/08 05:36:15;;;;;;;39.33;29.00;;;;;;;;;;5014580;28;20397;-79
2022/10/08 05:38:42;;;;;;;42.00;31.13;;;;;;;;;;5014571;28;20419;-79
2022/10/08 05:41:11;;;;;;;44.63;32.20;;;;;;;;;;5013492;28;20377;-79
2022/10/08 05:43:37;;;;;;;42.25;30.90;;;;;;;;;;5014220;28;20381;-79
2022/10/08 05:46:03;;;;;;;45.17;32.83;;;;;;;;;;5013460;28;21035;-79
2022/10/08 05:48:29;;;;;;;49.35;34.13;;;;;;;;;;5014176;28;20901;-79
2022/10/08 05:50:55;;;;;;;55.42;37.38;;;;;;;;;;5014120;28;20385;-79
2022/10/08 05:53:21;;;;;;;50.42;34.97;;;;;;;;;;5014170;28;20879;-80
2022/10/08 05:55:47;;;;;;;49.60;35.00;;;;;;;;;;5014242;28;20417;-79
2022/10/08 05:58:13;;;;;;;47.88;33.38;;;;;;;;;;5014012;28;20408;-79
2022/10/08 06:00:39;;;;;;;45.40;32.40;;;;;;;;;;5013760;28;20399;-79
2022/10/08 06:03:05;;;;;;;43.07;31.87;;;;;;;;;;5013988;28;20408;-79
2022/10/08 06:05:31;;;;;;;43.20;32.80;;;;;;;;;;5013424;28;20385;-79
2022/10/08 06:07:58;;;;;;;40.28;32.65;;;;;;;;;;5013732;28;20381;-79
2022/10/08 06:10:24;;;;;;;40.47;31.47;;;;;;;;;;5013264;28;20476;-79
2022/10/08 06:12:50;;;;;;;41.83;32.25;;;;;;;;;;5013636;28;20388;-79
2022/10/08 06:15:16;;;;;;;41.80;32.08;;;;;;;;;;5013602;28;20385;-79
2022/10/08 06:17:42;;;;;;;49.57;34.57;;;;;;;;;;5013640;28;20439;-79
2022/10/08 06:20:08;;;;;;;46.78;33.80;;;;;;;;;;5010452;28;20464;-80
2022/10/08 06:22:35;;;;;;;51.50;36.50;;;;;;;;;;5013422;28;20385;-80
2022/10/08 06:25:01;;;;;;;48.80;34.88;;;;;;;;;;5013719;28;20424;-80
2022/10/08 06:27:27;;;;;;;52.28;36.15;;;;;;;;;;5013441;28;20423;-80
2022/10/08 06:29:53;;;;;;;47.28;34.50;;;;;;;;;;5013512;28;20395;-79
2022/10/08 06:32:19;;;;;;;53.17;35.65;;;;;;;;;;5013216;28;20376;-80
2022/10/08 06:34:45;;;;;;;50.08;34.22;;;;;;;;;;5005575;28;20406;-79
2022/10/08 06:37:11;;;;;;;51.92;35.22;;;;;;;;;;5007243;28;20424;-79
2022/10/08 06:39:37;;;;;;;54.00;35.50;;;;;;;;;;5015448;28;20865;-79
2022/10/08 06:42:03;;;;;;;51.27;35.30;;;;;;;;;;5012402;28;20385;-79
2022/10/08 06:44:29;;;;;;;49.92;36.38;;;;;;;;;;5025317;28;20445;-79
2022/10/08 06:46:55;;;;;;;52.17;37.60;;;;;;;;;;5013132;28;20389;-79
2022/10/08 06:49:25;;;;;;;52.80;36.85;;;;;;;;;;5012447;28;20863;-79
2022/10/08 06:51:51;;;;;;;56.08;38.03;;;;;;;;;;5011039;28;20427;-79
2022/10/08 06:54:17;;;;;;;55.92;38.67;;;;;;;;;;5012135;28;20886;-79
2022/10/08 06:56:43;;;;;;;53.72;37.40;;;;;;;;;;5011248;28;20422;-79
2022/10/08 06:59:09;;;;;;;51.23;37.13;;;;;;;;;;5010092;28;20385;-79
2022/10/08 07:01:35;;;;;;;54.08;38.22;;;;;;;;;;5012677;28;20885;-79
2022/10/08 07:04:01;;;;;;;56.92;39.15;;;;;;;;;;5012864;28;20381;-79
2022/10/08 07:06:27;;;;;;;61.90;40.92;;;;;;;;;;5012868;28;20424;-80
2022/10/08 07:08:54;;;;;;;51.70;38.03;;;;;;;;;;5012940;28;20758;-79
2022/10/08 07:11:21;;;;;;;50.08;36.85;;;;;;;;;;5015219;28;20900;-79
2022/10/08 07:13:47;;;;;;;48.55;36.63;;;;;;;;;;5021782;28;20912;-79
2022/10/08 07:16:14;;;;;;;53.15;39.22;;;;;;;;;;5014191;28;20504;-79
2022/10/08 07:18:40;;;;;;;47.50;37.42;;;;;;;;;;5012885;28;20431;-79
2022/10/08 07:21:07;;;;;;;49.20;37.10;;;;;;;;;;5012673;28;20381;-80
2022/10/08 07:23:33;;;;;;;48.00;37.08;;;;;;;;;;5012649;28;20407;-80
2022/10/08 07:25:59;;;;;;;57.00;41.43;;;;;;;;;;5012502;28;20487;-79
2022/10/08 07:28:26;;;;;;;51.75;38.83;;;;;;;;;;5012536;28;20889;-79
2022/10/08 07:30:52;;;;;;;51.03;38.85;;;;;;;;;;5014855;28;20391;-79
2022/10/08 07:33:18;;;;;;;55.03;39.53;;;;;;;;;;5012705;28;20888;-80
2022/10/08 07:35:44;;;;;;;63.05;42.53;;;;;;;;;;5012415;28;20385;-79
2022/10/08 07:38:10;;;;;;;57.05;39.58;;;;;;;;;;5012738;28;20417;-79
2022/10/08 07:40:36;;;;;;;59.55;41.33;;;;;;;;;;5012458;28;20381;-79
2022/10/08 07:43:03;;;;;;;60.67;42.08;;;;;;;;;;5012326;28;20419;-79
2022/10/08 07:45:29;;;;;;;55.63;40.20;;;;;;;;;;5012638;28;20381;-79
2022/10/08 07:47:55;;;;;;;68.85;45.35;;;;;;;;;;5010783;28;20384;-79
2022/10/08 07:50:22;;;;;;;56.20;40.42;;;;;;;;;;4998383;28;21105;-80
2022/10/08 07:52:48;;;;;;;52.40;38.55;;;;;;;;;;5012082;28;20447;-79
2022/10/08 07:55:14;;;;;;;51.05;39.22;;;;;;;;;;5011886;28;20389;-79
2022/10/08 07:57:40;;;;;;;58.55;41.92;;;;;;;;;;5010911;28;20417;-79
2022/10/08 08:00:07;;;;;;;47.35;37.58;;;;;;;;;;5009858;28;20503;-79
2022/10/08 08:02:33;;;;;;;49.25;37.42;;;;;;;;;;5010867;28;20425;-79
2022/10/08 08:04:59;;;;;;;57.65;41.65;;;;;;;;;;5010484;28;20384;-81
2022/10/08 08:07:25;;;;;;;70.07;47.28;;;;;;;;;;4998381;28;20943;-79
2022/10/08 08:09:51;;;;;;;74.13;47.45;;;;;;;;;;5009602;28;20388;-80
2022/10/08 08:12:17;;;;;;;65.40;43.90;;;;;;;;;;5014172;28;20396;-79
2022/10/08 08:14:43;;;;;;;65.93;43.20;;;;;;;;;;5015908;28;20850;-80
2022/10/08 08:17:09;;;;;;;67.80;44.00;;;;;;;;;;5015736;28;20408;-79
2022/10/08 08:19:39;;;;;;;73.40;44.75;;;;;;;;;;5017452;28;20433;-79
2022/10/08 08:22:11;;;;;;;70.43;45.75;;;;;;;;;;5017173;28;20392;-79
2022/10/08 08:24:37;;;;;;;74.10;46.80;;;;;;;;;;5015569;28;20882;-79
2022/10/08 08:27:03;;;;;;;73.15;46.92;;;;;;;;;;5015657;28;20723;-79
2022/10/08 08:29:30;;;;;;;74.50;45.88;;;;;;;;;;5014971;28;20407;-80
2022/10/08 08:31:56;;;;;;;64.65;42.58;;;;;;;;;;5015639;28;20385;-80
2022/10/08 08:34:24;;;;;;;66.40;42.10;;;;;;;;;;5016097;28;20392;-78
2022/10/08 08:36:52;;;;;;;62.28;41.00;;;;;;;;;;5015587;28;20384;-79
2022/10/08 08:39:19;;;;;;;66.55;42.20;;;;;;;;;;5010691;28;20397;-80
2022/10/08 08:41:55;;;;;;;68.28;43.60;;;;;;;;;;5014670;28;20392;-80
2022/10/08 08:44:24;;;;;;;60.38;40.42;;;;;;;;;;5012998;28;20377;-80
2022/10/08 08:47:13;;;;;;;60.80;41.78;;;;;;;;;;5014074;28;20734;-79
2022/10/08 08:49:39;;;;;;;48.70;34.35;;;;;;;;;;4982742;28;20431;-79
2022/10/08 08:52:06;;;;;;;45.22;34.03;;;;;;;;;;5014006;28;20811;-80
2022/10/08 08:54:32;;;;;;;47.63;33.67;;;;;;;;;;5015341;28;20401;-79
2022/10/08 08:57:08;;;;;;;36.92;31.45;;;;;;;;;;5015293;28;20734;-79
2022/10/08 08:59:37;;;;;;;32.88;29.38;;;;;;;;;;5013316;28;20377;-79
2022/10/08 09:02:05;;;;;;;31.55;28.25;;;;;;;;;;5014924;28;20882;-79
2022/10/08 09:04:31;;;;;;;33.50;30.05;;;;;;;;;;5016389;28;20381;-79
2022/10/08 09:06:57;;;;;;;34.40;28.67;;;;;;;;;;5013434;28;20400;-79
2022/10/08 09:09:23;;;;;;;36.38;30.15;;;;;;;;;;5011378;28;20877;-78
2022/10/08 09:11:49;;;;;;;35.38;30.83;;;;;;;;;;5013905;28;20398;-78
2022/10/08 09:14:35;;;;;;;35.22;30.20;;;;;;;;;;5014757;28;20395;-79
2022/10/08 09:17:09;;;;;;;35.97;31.08;;;;;;;;;;5013396;28;20464;-77
2022/10/08 09:19:35;;;;;;;35.75;30.17;;;;;;;;;;5009724;28;20408;-78
2022/10/08 09:22:01;;;;;;;37.07;30.97;;;;;;;;;;5028311;28;20742;-77
2022/10/08 09:24:28;;;;;;;31.65;28.10;;;;;;;;;;5013760;28;20393;-78
2022/10/08 09:26:55;;;;;;;34.35;30.27;;;;;;;;;;5015715;28;20440;-78
2022/10/08 09:29:32;;;;;;;35.40;30.10;;;;;;;;;;5014448;28;20389;-78
2022/10/08 09:31:58;;;;;;;32.13;28.65;;;;;;;;;;5014542;28;20391;-78
2022/10/08 09:34:26;;;;;;;32.20;28.75;;;;;;;;;;5020075;28;20872;-78
2022/10/08 09:37:03;;;;;;;33.13;28.80;;;;;;;;;;5023681;28;20413;-80
2022/10/08 09:39:30;;;;;;;32.00;28.33;;;;;;;;;;5017606;28;20407;-79
2022/10/08 09:42:05;;;;;;;29.80;26.60;;;;;;;;;;5014792;28;20381;-79
2022/10/08 09:44:45;;;;;;;28.83;26.02;;;;;;;;;;5012823;28;20459;-78
2022/10/08 09:47:15;;;;;;;29.23;26.10;;;;;;;;;;5024766;28;20769;-78
2022/10/08 09:49:42;;;;;;;29.10;26.13;;;;;;;;;;5013174;28;20401;-78
2022/10/08 09:52:27;;;;;;;28.63;25.38;;;;;;;;;;5028012;28;20445;-78
2022/10/08 09:54:58;;;;;;;27.73;24.88;;;;;;;;;;5013959;28;20754;-79
2022/10/08 09:57:24;;;;;;;26.48;23.70;;;;;;;;;;5016592;28;20973;-78
2022/10/08 09:59:56;;;;;;;28.55;24.05;;;;;;;;;;5011010;28;20395;-78
2022/10/08 10:02:33;;;;;;;25.80;21.33;;;;;;;;;;5008594;28;20413;-79
2022/10/08 10:05:00;;;;;;;24.25;21.75;;;;;;;;;;5004194;28;20386;-78
2022/10/08 10:07:37;;;;;;;24.05;21.67;;;;;;;;;;5007925;28;20400;-78
2022/10/08 10:10:05;;;;;;;24.20;21.67;;;;;;;;;;5002318;28;20392;-78
2022/10/08 10:12:33;;;;;;;23.65;20.13;;;;;;;;;;5008973;28;20384;-78
2022/10/08 10:15:01;;;;;;;21.23;19.33;;;;;;;;;;5012637;28;20439;-78
2022/10/08 10:17:37;;;;;;;21.63;19.58;;;;;;;;;;5013156;28;20902;-79
2022/10/08 10:20:35;;;;;;;22.20;20.05;;;;;;;;;;5013801;28;20373;-79
2022/10/08 10:23:11;;;;;;;24.77;22.33;;;;;;;;;;4968677;28;20435;-79
2022/10/08 10:25:43;;;;;;;25.33;22.87;;;;;;;;;;5012644;28;20381;-79
2022/10/08 10:28:14;;;;;;;24.70;22.13;;;;;;;;;;5011738;28;20515;-78
2022/10/08 10:30:57;;;;;;;23.52;21.23;;;;;;;;;;5013434;28;20396;-79
2022/10/08 10:33:34;;;;;;;25.08;22.52;;;;;;;;;;5013068;28;20388;-79
2022/10/08 10:36:04;;;;;;;23.60;21.20;;;;;;;;;;5012306;28;20388;-79
2022/10/08 10:38:32;;;;;;;23.25;21.02;;;;;;;;;;5013332;28;20913;-78
2022/10/08 10:41:07;;;;;;;20.90;19.10;;;;;;;;;;5012877;28;20406;-78
2022/10/08 10:43:36;;;;;;;22.02;20.02;;;;;;;;;;5013317;28;20415;-78
2022/10/08 10:46:13;;;;;;;23.10;20.77;;;;;;;;;;5013313;28;20388;-79
2022/10/08 10:48:39;;;;;;;22.98;20.73;;;;;;;;;;5013287;28;20392;-79
2022/10/08 10:51:14;;;;;;;21.25;19.30;;;;;;;;;;5010075;28;20388;-79
2022/10/08 10:53:46;;;;;;;22.50;20.20;;;;;;;;;;5013148;28;20381;-78
2022/10/08 10:56:15;;;;;;;22.95;20.65;;;;;;;;;;5013867;28;20377;-79
2022/10/08 10:58:41;;;;;;;23.75;21.30;;;;;;;;;;5011120;28;20411;-79
2022/10/08 11:01:13;;;;;;;23.13;20.57;;;;;;;;;;5010881;28;20475;-79
2022/10/08 11:03:45;;;;;;;22.23;20.10;;;;;;;;;;5011302;28;20397;-80
2022/10/08 11:06:30;;;;;;;23.73;21.15;;;;;;;;;;5012729;28;20395;-79
2022/10/08 11:09:05;;;;;;;23.73;21.27;;;;;;;;;;5015983;28;20468;-80
2022/10/08 11:11:35;;;;;;;23.63;21.33;;;;;;;;;;5013110;28;20454;-80
2022/10/08 11:14:20;;;;;;;22.30;20.00;;;;;;;;;;5011669;28;20420;-80
2022/10/08 11:17:11;;;;;;;21.88;19.52;;;;;;;;;;5011539;28;20388;-79
2022/10/08 11:19:42;;;;;;;22.57;20.13;;;;;;;;;;5010992;28;20455;-79
2022/10/08 11:22:13;;;;;;;23.23;20.80;;;;;;;;;;5011794;28;20408;-79
2022/10/08 11:24:58;;;;;;;21.00;19.00;;;;;;;;;;5011723;28;20405;-78
2022/10/08 11:27:29;;;;;;;19.50;17.70;;;;;;;;;;5012298;28;20381;-79
2022/10/08 11:29:59;;;;;;;19.95;18.10;;;;;;;;;;5010941;28;20376;-79
2022/10/08 11:32:26;;;;;;;21.95;18.38;;;;;;;;;;5010538;28;20428;-79
2022/10/08 11:34:53;;;;;;;19.50;17.77;;;;;;;;;;5011270;28;20468;-79
2022/10/08 11:37:38;;;;;;;19.65;17.63;;;;;;;;;;5012447;28;20436;-79
2022/10/08 11:40:15;;;;;;;20.13;18.02;;;;;;;;;;5012703;28;20384;-79
2022/10/08 11:42:44;;;;;;;19.40;17.50;;;;;;;;;;5012487;28;20463;-79
2022/10/08 11:45:23;;;;;;;18.92;16.95;;;;;;;;;;5011619;28;20459;-79
2022/10/08 11:47:52;;;;;;;18.83;17.10;;;;;;;;;;5011201;28;20377;-79
2022/10/08 11:50:31;;;;;;;18.17;16.35;;;;;;;;;;5026372;28;20372;-79
2022/10/08 11:53:01;;;;;;;18.30;16.50;;;;;;;;;;5012264;28;20392;-79
2022/10/08 11:55:29;;;;;;;19.25;17.52;;;;;;;;;;5012383;28;20385;-79
2022/10/08 11:58:01;;;;;;;17.52;15.82;;;;;;;;;;5012281;28;20409;-79
2022/10/08 12:00:27;;;;;;;18.30;16.48;;;;;;;;;;5012128;28;20865;-79
2022/10/08 12:02:54;;;;;;;18.48;16.67;;;;;;;;;;5012184;28;20392;-79
2022/10/08 12:05:23;;;;;;;19.70;17.42;;;;;;;;;;5009118;28;20381;-79
2022/10/08 12:07:54;;;;;;;19.75;16.05;;;;;;;;;;4998850;28;20869;-79
2022/10/08 12:10:20;;;;;;;17.27;15.73;;;;;;;;;;5012252;28;20381;-79
2022/10/08 12:12:49;;;;;;;16.95;15.15;;;;;;;;;;5012107;28;20741;-79
2022/10/08 12:15:37;;;;;;;15.98;14.50;;;;;;;;;;5012242;28;20395;-79
2022/10/08 12:18:06;;;;;;;17.27;15.55;;;;;;;;;;5000097;28;20451;-79
2022/10/08 12:20:33;;;;;;;15.87;14.27;;;;;;;;;;5012132;28;20430;-79
2022/10/08 12:23:06;;;;;;;18.02;15.68;;;;;;;;;;5012313;28;20439;-79
2022/10/08 12:25:32;;;;;;;17.92;15.63;;;;;;;;;;5012135;28;20388;-79
2022/10/08 12:28:27;;;;;;;16.95;15.35;;;;;;;;;;5012354;28;20392;-79
2022/10/08 12:30:55;;;;;;;16.30;14.70;;;;;;;;;;4994721;28;20420;-79
2022/10/08 12:33:21;;;;;;;17.15;15.30;;;;;;;;;;5012184;28;20384;-79
2022/10/08 12:36:06;;;;;;;14.15;12.80;;;;;;;;;;5012132;28;20419;-79
2022/10/08 12:38:38;;;;;;;16.08;14.48;;;;;;;;;;5012606;28;20425;-79
2022/10/08 12:41:04;;;;;;;16.33;13.57;;;;;;;;;;5010735;28;20762;-79
2022/10/08 12:43:30;;;;;;;14.80;13.40;;;;;;;;;;5012140;28;20468;-79
2022/10/08 12:46:10;;;;;;;16.13;14.32;;;;;;;;;;5012037;28;20427;-79
2022/10/08 12:48:44;;;;;;;14.07;12.85;;;;;;;;;;5010590;28;20820;-79
2022/10/08 12:51:16;;;;;;;15.32;13.82;;;;;;;;;;5011890;28;20389;-79
2022/10/08 12:53:43;;;;;;;15.65;14.07;;;;;;;;;;5011915;28;20488;-79
2022/10/08 12:56:14;;;;;;;15.85;14.20;;;;;;;;;;5013464;28;20385;-79
2022/10/08 12:58:43;;;;;;;14.10;12.90;;;;;;;;;;5015297;28;20409;-79
2022/10/08 13:01:13;;;;;;;13.18;11.98;;;;;;;;;;5011972;28;20401;-79
2022/10/08 13:03:39;;;;;;;14.43;12.98;;;;;;;;;;5015315;28;20381;-79
2022/10/08 13:06:38;;;;;;;15.07;13.67;;;;;;;;;;5017844;28;20388;-79
2022/10/08 13:09:29;;;;;;;15.13;13.63;;;;;;;;;;4972168;28;20688;-79
2022/10/08 13:11:55;;;;;;;13.67;12.27;;;;;;;;;;5005000;28;20393;-79
2022/10/08 13:14:25;;;;;;;12.53;11.27;;;;;;;;;;5015065;28;20385;-79
2022/10/08 13:16:51;;;;;;;12.40;9.23;;;;;;;;;;5014947;28;20439;-79
2022/10/08 13:19:18;;;;;;;14.95;11.43;;;;;;;;;;5014786;28;20409;-79
2022/10/08 13:21:57;;;;;;;14.50;12.18;;;;;;;;;;5014882;28;20854;-79
2022/10/08 13:24:24;;;;;;;14.27;11.82;;;;;;;;;;5014742;28;20439;-79
2022/10/08 13:26:54;;;;;;;17.02;14.52;;;;;;;;;;5015009;28;20384;-79
2022/10/08 13:29:23;;;;;;;10.70;8.80;;;;;;;;;;5014662;28;20468;-79
2022/10/08 13:32:07;;;;;;;7.50;6.80;;;;;;;;;;5014718;28;20388;-79
2022/10/08 13:34:40;;;;;;;7.03;5.93;;;;;;;;;;5011646;28;20384;-79
2022/10/08 13:37:12;;;;;;;6.93;6.18;;;;;;;;;;5003964;28;20385;-80
2022/10/08 13:39:39;;;;;;;10.83;5.70;;;;;;;;;;5014437;28;20866;-79
2022/10/08 13:42:10;;;;;;;6.15;5.15;;;;;;;;;;5014201;28;20419;-79
2022/10/08 13:44:38;;;;;;;7.25;5.90;;;;;;;;;;5014305;28;20385;-79
2022/10/08 13:47:04;;;;;;;8.88;5.97;;;;;;;;;;5013986;28;20385;-80
2022/10/08 13:49:32;;;;;;;6.95;5.55;;;;;;;;;;5014364;28;20389;-80
2022/10/08 13:51:58;;;;;;;8.02;5.95;;;;;;;;;;5011797;28;20988;-80
2022/10/08 13:54:25;;;;;;;9.27;6.90;;;;;;;;;;5013939;28;20373;-80
2022/10/08 13:56:52;;;;;;;9.43;6.45;;;;;;;;;;5013057;28;20381;-79
2022/10/08 13:59:18;;;;;;;7.40;6.20;;;;;;;;;;5012790;28;20416;-79
2022/10/08 14:01:45;;;;;;;8.38;5.90;;;;;;;;;;5012346;28;20416;-80
2022/10/08 14:04:11;;;;;;;7.63;6.13;;;;;;;;;;5013690;28;20388;-79
2022/10/08 14:06:38;;;;;;;8.13;5.93;;;;;;;;;;5014043;28;20381;-80
2022/10/08 14:09:04;;;;;;;8.70;6.25;;;;;;;;;;5011868;28;20765;-79
2022/10/08 14:11:30;;;;;;;7.97;6.60;;;;;;;;;;5013226;28;20439;-79
2022/10/08 14:13:56;;;;;;;8.50;6.70;;;;;;;;;;5013999;28;20385;-80
2022/10/08 14:16:22;;;;;;;9.82;6.50;;;;;;;;;;5013542;28;20476;-79
2022/10/08 14:18:48;;;;;;;6.82;6.13;;;;;;;;;;5013718;28;20401;-79
2022/10/08 14:21:15;;;;;;;7.32;6.25;;;;;;;;;;5013653;28;20381;-79
2022/10/08 14:23:42;;;;;;;11.07;9.07;;;;;;;;;;5013234;28;20917;-79
2022/10/08 14:26:11;;;;;;;8.57;7.67;;;;;;;;;;5013632;28;20504;-79
2022/10/08 14:28:37;;;;;;;8.82;7.65;;;;;;;;;;5013634;28;20401;-79
2022/10/08 14:31:03;;;;;;;8.00;7.30;;;;;;;;;;5013392;28;20437;-80
2022/10/08 14:33:29;;;;;;;8.80;7.53;;;;;;;;;;5013869;28;20431;-79
2022/10/08 14:35:55;;;;;;;7.70;6.97;;;;;;;;;;5013498;28;20434;-80
2022/10/08 14:38:21;;;;;;;8.10;7.30;;;;;;;;;;5013264;28;20894;-80
2022/10/08 14:40:47;;;;;;;8.45;7.50;;;;;;;;;;5012343;28;20515;-80
2022/10/08 14:43:13;;;;;;;8.80;7.40;;;;;;;;;;5009275;28;20840;-80
2022/10/08 14:45:39;;;;;;;8.27;7.35;;;;;;;;;;5011460;28;20459;-79
2022/10/08 14:48:05;;;;;;;8.27;7.38;;;;;;;;;;5012593;28;20384;-80
2022/10/08 14:50:31;;;;;;;7.70;7.00;;;;;;;;;;5012501;28;20384;-79
2022/10/08 14:52:57;;;;;;;8.65;7.75;;;;;;;;;;5011039;28;20377;-80
2022/10/08 14:55:23;;;;;;;10.63;7.37;;;;;;;;;;5011850;28;20450;-79
2022/10/08 14:57:49;;;;;;;7.80;7.10;;;;;;;;;;5010913;28;20535;-80
2022/10/08 15:00:15;;;;;;;7.85;7.00;;;;;;;;;;5011727;28;20734;-80
2022/10/08 15:02:41;;;;;;;9.73;7.63;;;;;;;;;;5011864;28;20443;-80
2022/10/08 15:05:07;;;;;;;7.33;6.63;;;;;;;;;;5012835;28;20472;-79
2022/10/08 15:07:33;;;;;;;8.48;7.63;;;;;;;;;;5012816;28;20396;-79
2022/10/08 15:09:59;;;;;;;9.75;7.50;;;;;;;;;;5012859;28;20380;-79
2022/10/08 15:12:25;;;;;;;8.23;7.43;;;;;;;;;;5012397;28;20471;-79
2022/10/08 15:14:51;;;;;;;11.48;8.10;;;;;;;;;;5012796;28;20416;-78
2022/10/08 15:17:17;;;;;;;10.77;7.73;;;;;;;;;;5012161;28;20381;-80
2022/10/08 15:19:43;;;;;;;12.52;7.05;;;;;;;;;;5011324;28;20862;-79
2022/10/08 15:22:09;;;;;;;7.45;6.65;;;;;;;;;;5011655;28;20408;-78
2022/10/08 15:24:35;;;;;;;7.20;6.00;;;;;;;;;;5012080;28;20416;-78
2022/10/08 15:27:01;;;;;;;7.90;5.65;;;;;;;;;;5012639;28;20515;-78
2022/10/08 15:29:27;;;;;;;7.10;6.00;;;;;;;;;;5012641;28;20392;-78
2022/10/08 15:31:53;;;;;;;6.13;5.20;;;;;;;;;;5011967;28;20810;-79
2022/10/08 15:34:19;;;;;;;7.75;5.95;;;;;;;;;;5011501;28;20377;-80
2022/10/08 15:36:46;;;;;;;6.80;5.88;;;;;;;;;;5012060;28;20404;-80
2022/10/08 15:39:16;;;;;;;8.38;7.57;;;;;;;;;;5012388;28;20408;-80
2022/10/08 15:41:43;;;;;;;9.13;5.30;;;;;;;;;;5011904;28;20392;-80
2022/10/08 15:44:16;;;;;;;5.63;4.10;;;;;;;;;;5011790;28;20384;-81
2022/10/08 15:46:43;;;;;;;4.38;2.80;;;;;;;;;;5011276;28;20404;-80
2022/10/08 15:49:09;;;;;;;4.63;3.80;;;;;;;;;;5011567;28;20392;-80
2022/10/08 15:51:35;;;;;;;5.50;2.75;;;;;;;;;;5009650;28;20403;-80
2022/10/08 15:54:01;;;;;;;3.83;2.95;;;;;;;;;;5011024;28;20866;-80
2022/10/08 15:56:28;;;;;;;5.38;2.40;;;;;;;;;;5011426;28;20381;-80
2022/10/08 15:58:54;;;;;;;5.47;2.80;;;;;;;;;;5002222;28;20417;-80
2022/10/08 16:01:21;;;;;;;5.05;2.95;;;;;;;;;;5011078;28;20610;-80
2022/10/08 16:03:48;;;;;;;7.18;2.67;;;;;;;;;;5011330;28;20810;-80
2022/10/08 16:06:16;;;;;;;4.03;2.75;;;;;;;;;;5010222;28;20475;-79
2022/10/08 16:08:43;;;;;;;4.68;2.95;;;;;;;;;;5005008;28;20389;-80
2022/10/08 16:11:10;;;;;;;5.57;3.10;;;;;;;;;;5011205;28;20866;-82
2022/10/08 16:13:36;;;;;;;4.18;3.35;;;;;;;;;;5011300;28;20385;-81
2022/10/08 16:16:03;;;;;;;4.07;2.57;;;;;;;;;;5010334;28;20385;-81
2022/10/08 16:18:29;;;;;;;4.55;2.83;;;;;;;;;;5010699;28;20409;-82
2022/10/08 16:20:55;;;;;;;4.68;2.38;;;;;;;;;;5010562;28;20377;-81
2022/10/08 16:23:21;;;;;;;5.50;2.33;;;;;;;;;;5011260;28;20454;-81
2022/10/08 16:25:47;;;;;;;5.15;2.17;;;;;;;;;;5010785;28;20391;-81
2022/10/08 16:28:13;;;;;;;4.53;2.38;;;;;;;;;;5009870;28;20405;-81
2022/10/08 16:30:39;;;;;;;4.82;2.55;;;;;;;;;;5011951;28;20488;-81
2022/10/08 16:33:05;;;;;;;3.80;2.30;;;;;;;;;;5014823;28;20797;-80
2022/10/08 16:35:31;;;;;;;5.07;2.33;;;;;;;;;;5014727;28;20388;-81
2022/10/08 16:37:58;;;;;;;3.88;2.67;;;;;;;;;;5014658;28;20404;-81
2022/10/08 16:40:23;;;;;;;5.60;3.10;;;;;;;;;;5014441;28;20396;-81
2022/10/08 16:42:52;;;;;;;4.38;3.00;;;;;;;;;;5014795;28;20847;-82
2022/10/08 16:45:18;;;;;;;4.85;3.30;;;;;;;;;;5013138;28;20486;-81
2022/10/08 16:47:44;;;;;;;4.50;3.20;;;;;;;;;;5013060;28;20424;-81
2022/10/08 16:50:10;;;;;;;4.97;3.28;;;;;;;;;;5013968;28;20391;-81
2022/10/08 16:52:36;;;;;;;5.13;3.22;;;;;;;;;;5013705;28;20392;-81
2022/10/08 16:55:02;;;;;;;4.53;3.40;;;;;;;;;;5013796;28;20396;-81
2022/10/08 16:57:28;;;;;;;4.63;3.40;;;;;;;;;;5011740;28;20469;-81
2022/10/08 16:59:56;;;;;;;4.78;3.53;;;;;;;;;;5010770;28;20499;-81
2022/10/08 17:02:22;;;;;;;5.78;3.50;;;;;;;;;;5012309;28;20393;-81
2022/10/08 17:04:48;;;;;;;4.93;3.17;;;;;;;;;;5013926;28;20377;-81
2022/10/08 17:07:14;;;;;;;3.55;3.10;;;;;;;;;;5017327;28;20387;-81
2022/10/08 17:09:40;;;;;;;4.65;3.40;;;;;;;;;;5014152;28;20427;-81
2022/10/08 17:12:06;;;;;;;3.92;3.22;;;;;;;;;;5014683;28;20397;-81
2022/10/08 17:14:33;;;;;;;5.30;3.33;;;;;;;;;;5014117;28;20426;-81
2022/10/08 17:16:59;;;;;;;5.60;3.70;;;;;;;;;;5014460;28;20380;-80
2022/10/08 17:19:25;;;;;;;5.03;3.63;;;;;;;;;;5014137;28;20404;-80
2022/10/08 17:21:51;;;;;;;5.15;4.53;;;;;;;;;;5014335;28;20381;-81
2022/10/08 17:24:17;;;;;;;5.00;4.00;;;;;;;;;;5014211;28;20483;-81
2022/10/08 17:26:43;;;;;;;9.90;6.40;;;;;;;;;;5014762;28;20377;-81
2022/10/08 17:29:11;;;;;;;4.75;3.00;;;;;;;;;;5014396;28;20385;-80
2022/10/08 17:31:38;;;;;;;5.60;2.75;;;;;;;;;;5014200;28;20385;-80
2022/10/08 17:34:04;;;;;;;4.75;2.50;;;;;;;;;;5014428;28;20427;-80
2022/10/08 17:36:31;;;;;;;6.07;2.50;;;;;;;;;;5014081;28;20400;-80
2022/10/08 17:38:58;;;;;;;6.28;2.42;;;;;;;;;;5008670;28;20932;-81
2022/10/08 17:41:26;;;;;;;5.53;2.30;;;;;;;;;;5013868;28;20411;-81
2022/10/08 17:43:54;;;;;;;4.43;2.47;;;;;;;;;;5013521;28;20782;-81
2022/10/08 17:46:21;;;;;;;4.97;3.30;;;;;;;;;;5009082;28;20389;-81
2022/10/08 17:48:47;;;;;;;5.53;4.45;;;;;;;;;;5013682;28;20770;-81
2022/10/08 17:51:15;;;;;;;6.97;5.50;;;;;;;;;;5009616;28;20388;-81
2022/10/08 17:53:41;;;;;;;8.55;6.10;;;;;;;;;;5013152;28;20467;-81
2022/10/08 17:56:09;;;;;;;5.75;5.15;;;;;;;;;;5012960;28;20377;-81
2022/10/08 17:58:35;;;;;;;6.07;5.38;;;;;;;;;;5012564;28;20466;-82
2022/10/08 18:01:11;;;;;;;5.97;4.95;;;;;;;;;;5011587;28;20412;-79
2022/10/08 18:03:38;;;;;;;8.00;5.20;;;;;;;;;;5011669;28;20464;-79
2022/10/08 18:06:04;;;;;;;7.00;3.08;;;;;;;;;;5007729;28;20460;-80
2022/10/08 18:08:31;;;;;;;7.90;2.85;;;;;;;;;;5009762;28;20451;-80
2022/10/08 18:10:57;;;;;;;4.90;3.47;;;;;;;;;;5007237;28;20519;-80
2022/10/08 18:13:23;;;;;;;5.43;2.90;;;;;;;;;;5009351;28;20484;-81
2022/10/08 18:15:49;;;;;;;9.98;2.42;;;;;;;;;;5012624;28;20911;-80
2022/10/08 18:18:15;;;;;;;4.90;2.20;;;;;;;;;;5011688;28;20562;-80
2022/10/08 18:20:44;;;;;;;4.05;2.13;;;;;;;;;;5013717;28;20401;-80
2022/10/08 18:23:12;;;;;;;7.70;2.78;;;;;;;;;;5011605;28;20471;-80
2022/10/08 18:25:38;;;;;;;6.73;2.50;;;;;;;;;;5010605;28;20735;-80
2022/10/08 18:28:04;;;;;;;4.85;2.40;;;;;;;;;;5010070;28;20381;-81
2022/10/08 18:30:30;;;;;;;5.95;2.40;;;;;;;;;;5007507;28;20391;-80
2022/10/08 18:32:56;;;;;;;4.90;2.13;;;;;;;;;;5005439;28;20388;-80